Flight Track Log - Related Links

Times and Time Zones

All times are in EDT time to prevent confusion due to time zone crossing. See the JIA2342 flight status page for this flight to view local times or setup timezone preferences in your user account.

Time Position Orientation Groundspeed Altitude Reporting Facility
EDT Latitude Longitude Course Direction KTS MPH feet Rate Location/Type
Fri 08:51:59 PM 38.8000 -77.0333 90° East 178 205 1,700  Level Potomac TRACON
Fri 08:52:59 PM 38.7500 -77.0000 153° Southeast 256 295 3,700 2,305 Climbing Potomac TRACON
Fri 08:53:00 PM 38.9279 -76.7830 67° East  Level FlightAware Approximate
Fri 08:54:00 PM 38.9787 -76.6593 57° Northeast  Level FlightAware Approximate
Fri 08:54:43 PM 38.7631 -76.8375 84° East 301 346 8,000  Level Washington Center
Fri 08:55:00 PM 39.0275 -76.5342 67° East  Level FlightAware Approximate
Fri 08:55:44 PM 38.7808 -76.7314 78° East 301 346 9,600  Level Washington Center
Fri 08:56:00 PM 39.0771 -76.4090 61° Northeast  Level FlightAware Approximate
Fri 08:56:43 PM 38.8378 -76.6497 48° Northeast 289 333 11,300  Level Washington Center
Fri 08:57:00 PM 39.1167 -76.2815 90° East  Level FlightAware Approximate
Fri 08:57:43 PM 38.9011 -76.5653 46° Northeast 296 341 12,600  Level Washington Center
Fri 08:58:44 PM 38.9706 -76.4728 46° Northeast 328 377 13,800 1,180 Climbing Washington Center
Fri 08:59:45 PM 39.0422 -76.3772 46° Northeast 351 404 15,000 1,261 Climbing Washington Center
Fri 09:00:43 PM 39.1094 -76.2897 45° Northeast 368 423 16,300 1,373 Climbing Washington Center
Fri 09:01:43 PM 39.1622 -76.1458 65° Northeast 368 423 17,700 1,240 Climbing Washington Center
Fri 09:02:44 PM 39.1794 -76.0147 80° East 360 414 18,800 984 Climbing Washington Center
Fri 09:03:45 PM 39.1964 -75.8808 81° East 366 421 19,700 793 Climbing Washington Center
Fri 09:04:45 PM 39.2717 -75.7767 47° Northeast 359 413 20,400 712 Climbing Washington Center
Fri 09:05:43 PM 39.3489 -75.6775 45° Northeast 382 440 21,100 694 Climbing Washington Center
Fri 09:06:46 PM 39.4303 -75.5728 45° Northeast 388 447 21,800 694 Climbing Washington Center
Fri 09:07:44 PM 39.5133 -75.4650 45° Northeast 400 460 22,500 706 Climbing Washington Center
Fri 09:08:45 PM 39.5925 -75.3625 45° Northeast 405 466 23,200 756 Climbing Washington Center
Fri 09:09:43 PM 39.6736 -75.2544 46° Northeast 405 466 24,000 761 Climbing Washington Center
Fri 09:10:59 PM 39.7711 -75.1111 48° Northeast 421 484 24,900 711 Climbing New York Center
Fri 09:11:58 PM 39.8481 -74.9997 48° Northeast 421 484 25,600 655 Climbing New York Center
Fri 09:12:58 PM 39.9250 -74.8906 47° Northeast 421 484 26,200 650 Climbing New York Center
Fri 09:13:58 PM 40.0058 -74.7789 47° Northeast 421 484 26,900 590 Climbing New York Center
Fri 09:15:00 PM 40.0825 -74.6694 48° Northeast 421 484 27,400 500 Climbing New York Center
Fri 09:15:58 PM 40.1672 -74.5628 44° Northeast 421 484 27,900 508 Climbing New York Center
Fri 09:16:58 PM 40.2581 -74.4589 41° Northeast 422 486 28,400 545 Climbing New York Center
Fri 09:17:59 PM 40.3467 -74.3603 40° Northeast 422 486 29,000 138 Climbing New York Center
Fri 09:19:52 PM 40.5094 -74.1761 41° Northeast 422 486 28,800 -624 Descending Boston Center
Fri 09:20:52 PM 40.6006 -74.0747 40° Northeast 422 486 27,200 -1,700 Descending Boston Center
Fri 09:21:52 PM 40.7000 -73.9675 39° Northeast 427 491 25,400 -1,600 Descending Boston Center
Fri 09:22:52 PM 40.7867 -73.8736 39° Northeast 408 470 24,000 -700 Descending Boston Center
Fri 09:23:52 PM 40.8731 -73.7961 34° Northeast 394 453 24,000 -300 Level Boston Center
Fri 09:24:52 PM 40.9753 -73.7733 10° North 367 422 23,400 -800 Descending Boston Center
Fri 09:25:52 PM 41.0817 -73.7619 North 367 422 22,400 -1,000 Descending Boston Center
Fri 09:26:52 PM 41.1817 -73.7639 359° North 367 422 21,400 -1,000 Descending Boston Center
Fri 09:27:52 PM 41.2819 -73.7633 360° North 367 422 20,400 -1,050 Descending Boston Center
Fri 09:28:52 PM 41.3797 -73.7681 358° North 362 417 19,300 -950 Descending Boston Center
Fri 09:29:52 PM 41.4778 -73.7561 North 362 417 18,500 -1,000 Descending Boston Center
Fri 09:30:52 PM 41.5683 -73.6886 29° Northeast 357 411 17,300 -1,050 Descending Boston Center
Fri 09:31:52 PM 41.6586 -73.6267 27° Northeast 357 411 16,400 -1,050 Descending Boston Center
Fri 09:32:52 PM 41.7481 -73.6308 358° North 326 375 15,200 -1,200 Descending Boston Center
Fri 09:33:52 PM 41.8356 -73.6439 354° North 315 362 14,000 -1,286 Descending Boston Center
Fri 09:34:30 PM 41.8936 -73.6533 353° North 311 358 13,100 -1,297 Descending Boston Center
Fri 09:35:43 PM 41.9997 -73.6719 353° North 311 358 11,600 -984 Descending Boston Center
Fri 09:36:38 PM 42.0706 -73.6847 352° North 307 353 11,000 -313 Descending Boston Center
Fri 09:37:38 PM 42.1581 -73.6975 354° North 296 341 11,000 -397 Level Boston Center
Fri 09:38:39 PM 42.2392 -73.6992 359° North 288 331 10,200 -1,359 Descending Boston Center
Fri 09:39:46 PM 42.3247 -73.6953 North 284 327 8,100 -1,850 Descending Boston Center
Fri 09:40:52 PM 42.4103 -73.6858 North 282 325 6,100 -1,774 Descending Boston Center
Fri 09:41:41 PM 42.4728 -73.6842 North 275 316 4,700 -1,050 Descending Boston Center
Fri 09:42:52 PM 42.5606 -73.6719 North 271 312 4,000 -321 Descending Boston Center
Fri 09:43:52 PM 42.6356 -73.6650 North 271 312 4,000 -300 Level Boston Center
Fri 09:44:52 PM 42.7044 -73.6664 359° North 258 297 3,400 -513 Descending Boston Center
Fri 09:45:49 PM 42.7647 -73.6789 351° North 224 258 3,000 -458 Descending Boston Center
Fri 09:46:50 PM 42.8250 -73.6856 355° North 208 239 2,500 -492 Descending Boston Center

Login

Don't have an account? Register now (free) for customized features, flight alerts, and more!